High Spirits — WUT2131 — position and weather

sailwx.info

Track history (hours):
 
Tides and Currents Weather Stations Pressure Air Temp Water Temp Dewpoint Dewpoint Depression Visibility Wind Speed Wind Dir Waves Ship Positions

High Spirits

Owner: Hornblower Cruises and Events, SAN DIEGO, CA. More information available from US FCC via Universal Licensing System and Coast Guard Vessel Documentation Center.

Last reported at 2017-Oct-14 22:32 UTC. Time now 2017-Oct-20 03:04 UTC.
Position N 32°43' W 117°11'.

Length 34 m; draft 1.2 m.

Type: Passenger vessel. MMSI: 366987070.

Date/timePositionNaut miles runAvg speedWind from/ knotsBaromVisibWave heightAir tempDewpointWater temp
2017-Oct-14 22:32N 32°43' W 117°11'0 4.8
2017-Oct-14 22:30N 32°43' W 117°11'1 2.3
2017-Oct-14 22:00N 32°42' W 117°10'2 3.2
2017-Oct-14 21:30N 32°41' W 117°10'2 3.3
2017-Oct-14 21:00N 32°42' W 117°11'3 5.9
2017-Oct-14 20:30N 32°41' W 117°14'1 2.9
2017-Oct-14 20:01N 32°42' W 117°14'3 5.0
2017-Oct-14 19:28N 32°43' W 117°11'0 0.0
2017-Oct-13 03:59N 32°43' W 117°11'2 3.8
2017-Oct-13 03:25N 32°42' W 117°09'1 1.8
2017-Oct-13 02:42N 32°41' W 117°10'1 3.8
2017-Oct-13 02:28N 32°41' W 117°09'3 5.6
2017-Oct-13 01:54N 32°43' W 117°12'2 5.9
2017-Oct-13 01:30N 32°41' W 117°14'1 1.6
2017-Oct-13 01:00N 32°42' W 117°14'3 0.1
2017-Oct-12 00:25N 32°43' W 117°11'1 1.9
2017-Oct-12 00:00N 32°43' W 117°11'1 0.0
2017-Oct-10 10:53N 32°43' W 117°10'0 0.0
2017-Oct-10 08:35N 32°43' W 117°10'0 0.0
2017-Oct-10 08:29N 32°43' W 117°10'0 0.0
2017-Oct-09 20:13N 32°43' W 117°10'0 0.0
2017-Oct-09 19:07N 32°43' W 117°10'0 0.0
2017-Oct-09 18:59N 32°43' W 117°10'1 0.0
2017-Oct-08 21:34N 32°43' W 117°11'1 7.6
2017-Oct-08 21:29N 32°42' W 117°10'2 1.8
2017-Oct-08 20:36N 32°41' W 117°09'1 4.0
2017-Oct-08 20:21N 32°41' W 117°10'1 2.7
2017-Oct-08 19:54N 32°42' W 117°10'2 5.6
2017-Oct-08 19:30N 32°43' W 117°12'1 1.1
2017-Oct-08 18:14N 32°43' W 117°10'0 0.0
2017-Oct-08 03:44N 32°43' W 117°10'0 1.4
2017-Oct-08 03:29N 32°43' W 117°11'3 5.5
2017-Oct-08 03:00N 32°41' W 117°09'2 4.1
2017-Oct-08 02:29N 32°42' W 117°11'1 0.0
2017-Oct-07 04:07N 32°43' W 117°11'1 7.2
2017-Oct-07 04:00N 32°42' W 117°10'2 3.4
2017-Oct-07 03:30N 32°41' W 117°10'1 2.8
2017-Oct-07 02:58N 32°42' W 117°10'2 5.0
2017-Oct-07 02:30N 32°43' W 117°13'1 2.3
2017-Oct-07 01:59N 32°43' W 117°11'1 0.1
2017-Oct-06 15:39N 32°43' W 117°10'0 0.0
2017-Oct-06 15:18N 32°43' W 117°10'0 0.0
2017-Oct-06 13:23N 32°43' W 117°10'0 0.0
2017-Oct-06 05:06N 32°43' W 117°10'0 5.2
2017-Oct-06 05:00N 32°43' W 117°11'2 4.3
2017-Oct-06 04:30N 32°41' W 117°10'1 1.5
2017-Oct-06 03:59N 32°41' W 117°10'1 1.5
2017-Oct-06 03:30N 32°42' W 117°10'3 6.0
2017-Oct-06 03:00N 32°43' W 117°13'2 4.1
2017-Oct-06 02:30N 32°42' W 117°10'2 4.9
2017-Oct-06 02:00N 32°41' W 117°08'2 2.7
2017-Oct-06 01:18N 32°41' W 117°10'0 0.1
2017-Oct-06 00:52N 32°41' W 117°10'2 4.2
2017-Oct-06 00:29N 32°42' W 117°11'  
Track history (hours):
 
Tides and Currents Weather Stations Pressure Air Temp Water Temp Dewpoint Dewpoint Depression Visibility Wind Speed Wind Dir Waves Ship Positions

High Spirits

Owner: Hornblower Cruises and Events, SAN DIEGO, CA. More information available from US FCC via Universal Licensing System and Coast Guard Vessel Documentation Center.

Last reported at 2017-Oct-14 22:32 UTC. Time now 2017-Oct-20 03:04 UTC.
Position N 32°43' W 117°11'.

Length 34 m; draft 1.2 m.

Type: Passenger vessel. MMSI: 366987070.

Date/timePositionNaut miles runAvg speedWind from/ knotsBaromVisibWave heightAir tempDewpointWater temp
2017-Oct-14 22:32N 32°43' W 117°11'0 4.8
2017-Oct-14 22:30N 32°43' W 117°11'1 2.3
2017-Oct-14 22:00N 32°42' W 117°10'2 3.2
2017-Oct-14 21:30N 32°41' W 117°10'2 3.3
2017-Oct-14 21:00N 32°42' W 117°11'3 5.9
2017-Oct-14 20:30N 32°41' W 117°14'1 2.9
2017-Oct-14 20:01N 32°42' W 117°14'3 5.0
2017-Oct-14 19:28N 32°43' W 117°11'0 0.0
2017-Oct-13 03:59N 32°43' W 117°11'2 3.8
2017-Oct-13 03:25N 32°42' W 117°09'1 1.8
2017-Oct-13 02:42N 32°41' W 117°10'1 3.8
2017-Oct-13 02:28N 32°41' W 117°09'3 5.6
2017-Oct-13 01:54N 32°43' W 117°12'2 5.9
2017-Oct-13 01:30N 32°41' W 117°14'1 1.6
2017-Oct-13 01:00N 32°42' W 117°14'3 0.1
2017-Oct-12 00:25N 32°43' W 117°11'1 1.9
2017-Oct-12 00:00N 32°43' W 117°11'1 0.0
2017-Oct-10 10:53N 32°43' W 117°10'0 0.0
2017-Oct-10 08:35N 32°43' W 117°10'0 0.0
2017-Oct-10 08:29N 32°43' W 117°10'0 0.0
2017-Oct-09 20:13N 32°43' W 117°10'0 0.0
2017-Oct-09 19:07N 32°43' W 117°10'0 0.0
2017-Oct-09 18:59N 32°43' W 117°10'1 0.0
2017-Oct-08 21:34N 32°43' W 117°11'1 7.6
2017-Oct-08 21:29N 32°42' W 117°10'2 1.8
2017-Oct-08 20:36N 32°41' W 117°09'1 4.0
2017-Oct-08 20:21N 32°41' W 117°10'1 2.7
2017-Oct-08 19:54N 32°42' W 117°10'2 5.6
2017-Oct-08 19:30N 32°43' W 117°12'1 1.1
2017-Oct-08 18:14N 32°43' W 117°10'0 0.0
2017-Oct-08 03:44N 32°43' W 117°10'0 1.4
2017-Oct-08 03:29N 32°43' W 117°11'3 5.5
2017-Oct-08 03:00N 32°41' W 117°09'2 4.1
2017-Oct-08 02:29N 32°42' W 117°11'1 0.0
2017-Oct-07 04:07N 32°43' W 117°11'1 7.2
2017-Oct-07 04:00N 32°42' W 117°10'2 3.4
2017-Oct-07 03:30N 32°41' W 117°10'1 2.8
2017-Oct-07 02:58N 32°42' W 117°10'2 5.0
2017-Oct-07 02:30N 32°43' W 117°13'1 2.3
2017-Oct-07 01:59N 32°43' W 117°11'1 0.1
2017-Oct-06 15:39N 32°43' W 117°10'0 0.0
2017-Oct-06 15:18N 32°43' W 117°10'0 0.0
2017-Oct-06 13:23N 32°43' W 117°10'0 0.0
2017-Oct-06 05:06N 32°43' W 117°10'0 5.2
2017-Oct-06 05:00N 32°43' W 117°11'2 4.3
2017-Oct-06 04:30N 32°41' W 117°10'1 1.5
2017-Oct-06 03:59N 32°41' W 117°10'1 1.5
2017-Oct-06 03:30N 32°42' W 117°10'3 6.0
2017-Oct-06 03:00N 32°43' W 117°13'2 4.1
2017-Oct-06 02:30N 32°42' W 117°10'2 4.9
2017-Oct-06 02:00N 32°41' W 117°08'2 2.7
2017-Oct-06 01:18N 32°41' W 117°10'0 0.1
2017-Oct-06 00:52N 32°41' W 117°10'2 4.2
2017-Oct-06 00:29N 32°42' W 117°11'  

Dump ship's entire track history